Time;durP1;ratioP1;P1;durP2;ratioP2;P2;SDS_P1;SDS_P2;PMS_P1;PMS_P2;Temp;Humidity;BMP_temperature;BMP_pressure;BME280_temperature;BME280_humidity;BME280_pressure;Samples;Min_cycle;Max_cycle;Signal;HPM_P1;HPM_P2
2023/04/13 00:00:13;;;;;;;2.77;1.60;;;;;;;10.79;47.91;96084.16;5100412;28;20246;-82
2023/04/13 00:02:40;;;;;;;3.37;1.80;;;;;;;10.76;48.37;96096.47;5097023;28;20881;-85
2023/04/13 00:05:09;;;;;;;4.23;2.20;;;;;;;10.79;48.43;96101.47;5075471;28;20606;-85
2023/04/13 00:07:37;;;;;;;2.33;2.00;;;;;;;10.77;48.88;96103.31;5056851;28;20664;-86
2023/04/13 00:10:09;;;;;;;1.87;1.73;;;;;;;10.78;48.77;96090.25;5075307;28;20197;-85
2023/04/13 00:12:37;;;;;;;3.03;1.43;;;;;;;10.77;48.59;96105.91;5098669;28;20307;-79
2023/04/13 00:15:04;;;;;;;3.87;1.50;;;;;;;10.63;49.53;96097.22;5078329;28;20246;-86
2023/04/13 00:17:34;;;;;;;6.87;2.10;;;;;;;10.52;50.33;96097.03;5073204;28;20189;-86
2023/04/13 00:20:06;;;;;;;2.13;1.87;;;;;;;10.34;50.52;96094.72;5056789;28;20201;-84
2023/04/13 00:22:33;;;;;;;3.33;2.00;;;;;;;10.24;51.39;96098.78;5093664;28;20219;-81
2023/04/13 00:25:01;;;;;;;2.07;1.57;;;;;;;10.17;51.36;96105.25;5055690;28;21098;-87
2023/04/13 00:27:29;;;;;;;2.87;2.17;;;;;;;10.14;51.37;96100.25;5090146;28;20208;-87
2023/04/13 00:29:58;;;;;;;3.10;1.80;;;;;;;10.21;51.38;96119.66;5071472;28;20194;-83
2023/04/13 00:32:26;;;;;;;2.63;1.67;;;;;;;10.14;51.10;96120.97;5088117;28;20232;-84
2023/04/13 00:34:53;;;;;;;2.93;1.80;;;;;;;10.11;51.38;96128.88;5089593;28;20200;-85
2023/04/13 00:37:20;;;;;;;4.47;2.20;;;;;;;10.11;51.62;96134.06;5071301;28;20222;-83
2023/04/13 00:39:48;;;;;;;2.57;1.90;;;;;;;9.92;51.67;96118.75;5089785;28;20200;-85
2023/04/13 00:42:17;;;;;;;2.13;1.70;;;;;;;9.72;51.88;96117.31;5071445;28;20189;-84
2023/04/13 00:44:44;;;;;;;2.57;1.53;;;;;;;9.50;52.36;96123.78;5071233;28;20189;-82
2023/04/13 00:47:16;;;;;;;3.27;1.80;;;;;;;9.52;52.54;96135.69;5089593;28;20220;-84
2023/04/13 00:49:44;;;;;;;2.43;1.77;;;;;;;9.43;52.65;96135.38;5091150;28;20185;-87
2023/04/13 00:52:11;;;;;;;3.50;1.80;;;;;;;9.26;53.11;96133.72;5072188;28;20235;-87
2023/04/13 00:54:38;;;;;;;2.17;1.80;;;;;;;9.33;53.57;96144.56;5099043;28;20195;-83
2023/04/13 00:57:07;;;;;;;3.40;2.23;;;;;;;9.06;54.14;96149.47;5092711;28;20222;-87
2023/04/13 00:59:35;;;;;;;2.30;2.00;;;;;;;8.98;55.50;96152.44;5091796;28;20269;-84
2023/04/13 01:02:04;;;;;;;2.10;1.90;;;;;;;8.75;56.08;96144.28;5090782;28;20184;-87
2023/04/13 01:04:32;;;;;;;3.83;2.20;;;;;;;8.68;57.15;96161.84;5089240;28;20188;-84
2023/04/13 01:07:06;;;;;;;3.20;2.10;;;;;;;8.58;57.42;96165.81;5089129;28;20177;-82
2023/04/13 01:09:59;;;;;;;4.13;2.80;;;;;;;8.47;57.81;96167.28;5054278;28;20682;-85
2023/04/13 01:12:35;;;;;;;5.87;2.63;;;;;;;8.42;57.94;96174.41;5067058;28;20228;-83
2023/04/13 01:15:07;;;;;;;5.20;2.30;;;;;;;8.23;58.56;96159.00;5070843;28;20191;-82
2023/04/13 01:17:37;;;;;;;3.67;1.80;;;;;;;8.36;57.98;96169.56;5070877;28;20188;-86
2023/04/13 01:20:28;;;;;;;3.10;2.30;;;;;;;8.36;57.60;96172.16;5071114;28;20266;-85
2023/04/13 01:23:02;;;;;;;2.20;2.00;;;;;;;8.48;58.36;96174.09;5070564;28;20244;-86
2023/04/13 01:25:50;;;;;;;5.03;3.23;;;;;;;8.38;58.58;96163.44;5070910;28;20193;-82
2023/04/13 01:28:20;;;;;;;8.23;4.17;;;;;;;8.49;57.20;96157.72;5054202;28;20196;-82
2023/04/13 01:30:51;;;;;;;10.07;5.57;;;;;;;8.23;57.67;96138.38;5088574;28;20200;-83
2023/04/13 01:33:19;;;;;;;4.40;2.80;;;;;;;8.19;58.92;96150.59;5088163;28;20223;-82
2023/04/13 01:35:48;;;;;;;3.00;2.07;;;;;;;8.04;58.50;96153.94;5088338;28;20746;-82
2023/04/13 01:38:24;;;;;;;2.97;1.90;;;;;;;8.05;58.78;96170.25;5053910;28;20208;-83
2023/04/13 01:40:53;;;;;;;5.67;2.93;;;;;;;8.19;59.08;96173.81;5070850;28;20192;-86
2023/04/13 01:43:22;;;;;;;5.90;3.03;;;;;;;8.32;58.45;96175.78;5071641;28;20682;-85
2023/04/13 01:46:12;;;;;;;3.37;2.60;;;;;;;8.30;58.45;96172.47;5077035;28;20253;-73
2023/04/13 01:49:01;;;;;;;6.80;3.17;;;;;;;8.27;58.81;96164.88;5083735;28;20272;-81
2023/04/13 01:51:45;;;;;;;3.80;2.73;;;;;;;8.19;58.79;96178.97;5089897;28;20179;-82
2023/04/13 01:54:24;;;;;;;4.07;2.47;;;;;;;7.98;60.37;96180.03;5070235;28;20581;-84
2023/04/13 01:56:55;;;;;;;2.70;2.20;;;;;;;7.75;60.57;96180.31;5070719;28;20199;-88
2023/04/13 01:59:23;;;;;;;3.43;2.30;;;;;;;7.50;61.15;96166.13;5070349;28;20192;-81
2023/04/13 02:01:50;;;;;;;2.33;2.00;;;;;;;7.43;62.30;96185.31;5070000;28;20193;-82
2023/04/13 02:04:19;;;;;;;4.43;2.40;;;;;;;7.55;61.88;96190.75;5069852;28;20197;-79
2023/04/13 02:06:47;;;;;;;2.47;2.10;;;;;;;7.60;61.15;96180.22;5069954;28;20257;-83
2023/04/13 02:09:14;;;;;;;4.13;2.40;;;;;;;7.66;62.13;96190.22;5075177;28;20191;-76
2023/04/13 02:11:42;;;;;;;2.83;2.43;;;;;;;7.52;61.58;96165.13;5083096;28;20191;-85
2023/04/13 02:14:10;;;;;;;4.30;2.60;;;;;;;7.59;62.50;96183.69;5072200;28;20585;-84
2023/04/13 02:16:37;;;;;;;3.47;2.37;;;;;;;7.28;62.83;96192.88;5085006;28;20182;-81
2023/04/13 02:19:05;;;;;;;5.07;3.00;;;;;;;7.07;63.10;96193.84;5080373;28;20189;-81
2023/04/13 02:21:33;;;;;;;3.43;2.30;;;;;;;6.96;63.70;96190.94;5070038;28;20236;-84
2023/04/13 02:24:00;;;;;;;3.97;2.83;;;;;;;6.76;64.14;96197.88;5087707;28;20690;-81
2023/04/13 02:26:27;;;;;;;3.80;2.50;;;;;;;6.82;64.46;96200.19;5085666;28;20189;-80
2023/04/13 02:28:55;;;;;;;3.17;2.40;;;;;;;6.67;64.32;96198.28;5050091;28;20221;-76
2023/04/13 02:31:22;;;;;;;3.30;2.40;;;;;;;6.78;64.05;96193.50;5071696;28;20324;-74
2023/04/13 02:33:50;;;;;;;2.57;2.20;;;;;;;6.99;63.69;96200.25;5058603;28;20222;-77
2023/04/13 02:36:17;;;;;;;3.80;2.43;;;;;;;6.77;64.25;96205.53;5078132;28;20186;-77
2023/04/13 02:38:51;;;;;;;3.67;2.50;;;;;;;6.65;63.67;96200.94;5054566;28;20186;-81
2023/04/13 02:41:26;;;;;;;3.27;2.30;;;;;;;6.76;63.80;96190.16;5048993;28;20261;-83
2023/04/13 02:43:53;;;;;;;2.67;2.47;;;;;;;6.72;63.23;96196.34;5049405;28;20214;-81
2023/04/13 02:46:23;;;;;;;3.27;2.50;;;;;;;6.72;62.81;96198.94;5049447;28;20655;-82
2023/04/13 02:48:58;;;;;;;2.33;2.13;;;;;;;6.34;63.49;96191.13;5048912;28;20199;-76
2023/04/13 02:51:29;;;;;;;3.57;2.43;;;;;;;6.19;64.54;96196.06;5049356;28;20218;-76
2023/04/13 02:53:56;;;;;;;4.93;2.80;;;;;;;5.95;65.50;96197.09;5048916;28;20219;-78
2023/04/13 02:56:27;;;;;;;4.57;2.70;;;;;;;5.83;65.56;96190.72;5049151;28;20262;-78
2023/04/13 02:58:57;;;;;;;4.43;2.70;;;;;;;5.99;65.63;96181.50;5032878;28;20244;-80
2023/04/13 03:01:24;;;;;;;15.23;3.97;;;;;;;6.27;63.98;96189.72;5048765;28;20189;-82
2023/04/13 03:03:53;;;;;;;5.57;3.10;;;;;;;6.41;64.05;96184.81;5049010;28;20198;-78
2023/04/13 03:06:24;;;;;;;3.07;2.70;;;;;;;6.29;63.96;96189.63;5048822;28;20192;-78
2023/04/13 03:08:56;;;;;;;3.13;2.60;;;;;;;6.11;63.98;96196.41;5032267;28;20703;-80
2023/04/13 03:11:24;;;;;;;2.83;2.50;;;;;;;6.13;65.33;96186.91;5066782;28;20284;-77
2023/04/13 03:14:03;;;;;;;3.60;2.80;;;;;;;6.23;65.12;96201.03;5049101;28;20764;-83
2023/04/13 03:16:30;;;;;;;7.03;2.97;;;;;;;6.26;64.63;96195.78;5066611;28;20193;-76
2023/04/13 03:18:58;;;;;;;5.57;2.80;;;;;;;6.32;64.46;96202.38;5067944;28;20285;-79
2023/04/13 03:21:25;;;;;;;3.80;2.73;;;;;;;6.40;64.08;96208.03;5087327;28;20215;-78
2023/04/13 03:24:04;;;;;;;4.60;3.10;;;;;;;6.30;63.59;96199.03;5069115;28;20193;-81
2023/04/13 03:26:31;;;;;;;8.37;3.73;;;;;;;6.29;64.24;96197.34;5069311;28;20189;-75
2023/04/13 03:29:02;;;;;;;8.73;4.70;;;;;;;6.10;64.92;96194.72;5054224;28;20279;-86
2023/04/13 03:31:33;;;;;;;9.33;4.33;;;;;;;6.33;64.03;96215.16;5073703;28;20193;-79
2023/04/13 03:34:01;;;;;;;8.70;4.50;;;;;;;6.37;63.87;96221.84;5066466;28;20218;-81
2023/04/13 03:36:28;;;;;;;6.70;5.00;;;;;;;6.29;64.26;96213.63;5069018;28;20200;-73
2023/04/13 03:38:56;;;;;;;8.47;4.67;;;;;;;5.96;65.07;96215.00;5065302;28;20198;-78
2023/04/13 03:41:27;;;;;;;10.87;5.17;;;;;;;5.60;66.77;96216.47;5064992;28;20240;-75
2023/04/13 03:43:54;;;;;;;10.57;5.53;;;;;;;5.44;67.55;96223.91;5084652;28;20193;-81
2023/04/13 03:46:23;;;;;;;15.50;6.80;;;;;;;5.41;67.74;96230.91;5052336;28;20210;-75
2023/04/13 03:48:50;;;;;;;17.47;8.03;;;;;;;5.44;67.09;96235.94;5068662;28;20187;-76
2023/04/13 03:51:23;;;;;;;21.20;10.10;;;;;;;5.45;67.57;96233.31;5082075;28;20200;-76
2023/04/13 03:53:51;;;;;;;26.80;11.70;;;;;;;5.38;67.52;96238.75;5083916;28;20222;-83
2023/04/13 03:56:22;;;;;;;28.20;11.37;;;;;;;5.02;68.23;96201.63;5073689;28;20201;-85
2023/04/13 03:58:50;;;;;;;28.57;12.30;;;;;;;4.81;69.06;96204.09;5092076;28;20181;-81
2023/04/13 04:01:22;;;;;;;25.17;10.47;;;;;;;5.09;68.76;96242.38;5076110;28;20201;-85
2023/04/13 04:03:50;;;;;;;16.90;8.60;;;;;;;5.03;68.90;96234.09;5091085;28;20185;-85
2023/04/13 04:06:17;;;;;;;17.13;8.17;;;;;;;5.24;68.90;96249.53;5092952;28;20710;-79
2023/04/13 04:08:52;;;;;;;23.17;9.07;;;;;;;5.55;68.27;96255.16;5073589;28;20653;-81
2023/04/13 04:11:35;;;;;;;17.47;7.43;;;;;;;5.57;66.85;96232.00;5071370;28;20234;-86
2023/04/13 04:14:05;;;;;;;18.63;8.30;;;;;;;5.89;65.97;96247.00;5074447;28;20208;-80
2023/04/13 04:16:32;;;;;;;18.03;7.63;;;;;;;6.35;64.22;96254.50;5074330;28;20196;-85
2023/04/13 04:19:08;;;;;;;21.03;9.00;;;;;;;6.75;63.46;96263.09;5086128;28;20674;-83
2023/04/13 04:21:35;;;;;;;28.00;10.43;;;;;;;6.84;63.37;96268.66;5076081;28;20218;-85
2023/04/13 04:24:11;;;;;;;24.13;10.33;;;;;;;6.79;62.74;96269.78;5075162;28;20193;-81
2023/04/13 04:26:48;;;;;;;35.10;17.57;;;;;;;6.88;61.26;96282.25;5073451;28;20198;-83
2023/04/13 04:29:16;;;;;;;62.63;26.43;;;;;;;6.85;60.83;96278.06;5073276;28;20195;-78
2023/04/13 04:31:43;;;;;;;71.10;29.27;;;;;;;6.73;61.73;96282.91;5075427;28;20202;-80
2023/04/13 04:34:15;;;;;;;84.93;35.13;;;;;;;6.71;61.19;96284.72;5072963;28;20222;-87
2023/04/13 04:36:44;;;;;;;89.37;35.97;;;;;;;6.86;63.11;96276.34;5075844;28;20217;-85
2023/04/13 04:39:13;;;;;;;99.93;38.87;;;;;;;7.35;60.95;96275.84;5074585;28;20269;-85
2023/04/13 04:41:53;;;;;;;104.03;37.73;;;;;;;7.79;59.62;96287.50;5073096;28;20191;-86
2023/04/13 04:44:29;;;;;;;105.70;39.63;;;;;;;7.98;59.44;96264.25;5072987;28;20185;-86
2023/04/13 04:47:03;;;;;;;101.70;37.67;;;;;;;8.27;58.21;96284.34;5073418;28;20244;-82
2023/04/13 04:49:35;;;;;;;102.37;37.43;;;;;;;7.89;58.20;96260.38;5073639;28;20196;-82
2023/04/13 04:52:03;;;;;;;98.00;39.43;;;;;;;7.69;60.31;96287.97;5083545;28;20177;-84
2023/04/13 04:54:30;;;;;;;83.63;36.40;;;;;;;7.61;59.09;96280.63;5097887;28;20335;-76
2023/04/13 04:57:00;;;;;;;85.43;34.63;;;;;;;7.56;59.48;96263.72;5056088;28;20192;-78
2023/04/13 04:59:29;;;;;;;84.53;32.77;;;;;;;7.81;59.65;96295.97;5076012;28;20192;-82
2023/04/13 05:02:40;;;;;;;89.23;31.47;;;;;;;7.86;59.36;96288.03;5072561;28;20190;-78
2023/04/13 05:05:41;;;;;;;76.27;30.13;;;;;;;8.13;59.25;96282.41;5070091;28;20185;-77
2023/04/13 05:08:14;;;;;;;83.80;33.83;;;;;;;8.29;58.63;96279.09;5104639;28;20672;-80
2023/04/13 05:10:46;;;;;;;95.47;38.80;;;;;;;8.24;58.32;96281.91;5071204;28;20196;-84
2023/04/13 05:13:14;;;;;;;89.17;39.37;;;;;;;8.43;58.48;96285.25;5070963;28;20296;-84
2023/04/13 05:15:47;;;;;;;105.27;40.57;;;;;;;8.81;57.95;96291.94;5071088;28;20226;-80
2023/04/13 05:18:17;;;;;;;93.47;38.63;;;;;;;8.66;57.32;96272.06;5089046;28;20725;-78
2023/04/13 05:20:44;;;;;;;96.30;37.67;;;;;;;8.77;57.30;96287.84;5088600;28;20284;-80
2023/04/13 05:23:11;;;;;;;86.70;34.63;;;;;;;8.86;57.55;96286.56;5053649;28;20240;-82
2023/04/13 05:25:46;;;;;;;88.53;33.43;;;;;;;8.95;57.48;96283.47;5070629;28;20220;-82
2023/04/13 05:28:17;;;;;;;70.00;31.17;;;;;;;9.41;55.86;96287.91;5072056;28;20283;-83
2023/04/13 05:30:46;;;;;;;75.97;32.37;;;;;;;9.63;54.51;96274.66;5075577;28;20177;-82
2023/04/13 05:33:15;;;;;;;60.13;27.40;;;;;;;10.03;53.90;96283.66;5074366;28;20220;-85
2023/04/13 05:35:45;;;;;;;61.10;27.40;;;;;;;10.43;52.64;96293.47;5072650;28;20177;-84
2023/04/13 05:38:12;;;;;;;62.50;26.57;;;;;;;10.44;53.24;96300.31;5038765;28;20276;-79
2023/04/13 05:40:39;;;;;;;67.07;27.63;;;;;;;10.39;53.69;96299.72;5054698;28;20313;-82
2023/04/13 05:43:06;;;;;;;49.73;24.40;;;;;;;10.41;52.67;96303.06;5070648;28;20188;-80
2023/04/13 05:45:39;;;;;;;60.13;27.70;;;;;;;10.29;54.00;96314.94;5069987;28;20180;-77
2023/04/13 05:48:10;;;;;;;62.07;27.93;;;;;;;10.68;54.20;96303.25;5053063;28;20199;-81
2023/04/13 05:50:37;;;;;;;53.50;25.07;;;;;;;11.06;52.35;96318.22;5091603;28;20185;-74
2023/04/13 05:53:07;;;;;;;50.40;22.33;;;;;;;11.12;52.37;96310.09;5079441;28;20228;-76
2023/04/13 05:55:51;;;;;;;46.60;20.83;;;;;;;11.11;52.14;96304.97;5069592;28;20199;-81
2023/04/13 05:58:19;;;;;;;43.60;19.47;;;;;;;10.89;51.82;96315.78;5069895;28;20221;-80
2023/04/13 06:00:49;;;;;;;37.70;17.97;;;;;;;10.92;52.75;96323.34;5069572;28;20227;-81
2023/04/13 06:03:26;;;;;;;33.17;16.00;;;;;;;10.99;51.46;96329.88;5068901;28;20184;-75
2023/04/13 06:05:54;;;;;;;36.63;17.43;;;;;;;11.21;51.60;96335.44;5087605;28;20220;-81
2023/04/13 06:08:21;;;;;;;32.60;14.50;;;;;;;11.35;50.11;96335.44;5069466;28;20198;-80
2023/04/13 06:10:50;;;;;;;32.83;14.13;;;;;;;11.06;50.62;96318.22;5069129;28;20284;-76
2023/04/13 06:13:17;;;;;;;27.90;12.80;;;;;;;11.03;51.55;96338.28;5087360;28;20570;-75
2023/04/13 06:15:45;;;;;;;25.67;12.27;;;;;;;11.12;51.60;96337.75;5086707;28;20247;-79
2023/04/13 06:18:12;;;;;;;18.27;9.50;;;;;;;11.36;51.33;96342.31;5087538;28;20185;-81
2023/04/13 06:20:39;;;;;;;21.43;9.87;;;;;;;11.41;50.29;96339.44;5087515;28;20184;-84
2023/04/13 06:23:08;;;;;;;19.60;9.83;;;;;;;11.39;51.36;96347.31;5069842;28;20341;-79
2023/04/13 06:25:35;;;;;;;19.87;9.57;;;;;;;10.93;51.62;96317.28;5087074;28;20650;-83
2023/04/13 06:28:03;;;;;;;24.03;9.43;;;;;;;11.20;51.50;96330.34;5069300;28;20214;-81
2023/04/13 06:30:35;;;;;;;21.57;10.23;;;;;;;11.30;50.72;96340.09;5068695;28;20206;-80
2023/04/13 06:33:06;;;;;;;19.17;9.57;;;;;;;10.75;50.62;96268.31;5068449;28;20262;-82
2023/04/13 06:35:36;;;;;;;21.47;10.90;;;;;;;11.28;49.99;96323.78;5069060;28;20218;-83
2023/04/13 06:38:04;;;;;;;19.60;10.17;;;;;;;10.99;49.19;96254.72;5068940;28;20364;-80
2023/04/13 06:40:43;;;;;;;20.87;9.90;;;;;;;11.72;47.80;96312.50;5052171;28;20196;-81
2023/04/13 06:43:10;;;;;;;20.97;10.37;;;;;;;12.18;47.06;96332.03;5068342;28;20200;-79
2023/04/13 06:46:13;;;;;;;20.60;9.17;;;;;;;12.24;45.96;96339.47;5068521;28;20676;-80
2023/04/13 06:48:42;;;;;;;16.50;8.87;;;;;;;12.26;46.45;96289.09;5068541;28;20193;-80
2023/04/13 06:51:11;;;;;;;19.17;9.87;;;;;;;12.55;45.28;96302.78;5068678;28;20273;-88
2023/04/13 06:53:41;;;;;;;13.73;6.60;;;;;;;12.79;43.08;96334.97;5069164;28;20233;-80
2023/04/13 06:56:11;;;;;;;15.93;8.00;;;;;;;12.94;43.46;96327.94;5086675;28;20198;-82
2023/04/13 06:58:40;;;;;;;10.83;5.10;;;;;;;12.92;41.95;96335.81;5068366;28;20205;-76
2023/04/13 07:01:07;;;;;;;7.00;4.23;;;;;;;13.07;41.08;96334.00;5086396;28;20197;-80
2023/04/13 07:03:36;;;;;;;9.27;4.80;;;;;;;13.15;40.88;96307.50;5068819;28;20290;-74
2023/04/13 07:06:05;;;;;;;11.67;5.10;;;;;;;13.39;40.23;96344.84;5086703;28;20196;-84
2023/04/13 07:08:33;;;;;;;3.00;2.03;;;;;;;13.48;38.39;96344.19;5068112;28;20201;-82
2023/04/13 07:11:01;;;;;;;5.17;3.20;;;;;;;13.50;38.68;96327.56;5086962;28;20196;-80
2023/04/13 07:13:36;;;;;;;5.53;3.50;;;;;;;13.79;39.07;96335.94;5068669;28;20217;-80
2023/04/13 07:16:10;;;;;;;5.23;2.67;;;;;;;13.86;37.45;96319.81;5068677;28;20191;-80
2023/04/13 07:18:41;;;;;;;5.70;3.30;;;;;;;13.97;37.96;96331.25;5086717;28;20196;-81
2023/04/13 07:21:08;;;;;;;7.97;4.80;;;;;;;14.10;38.54;96327.66;5086468;28;20180;-73
2023/04/13 07:23:53;;;;;;;8.47;3.43;;;;;;;14.25;37.18;96318.75;5068493;28;20233;-79
2023/04/13 07:26:21;;;;;;;5.93;2.57;;;;;;;14.49;36.57;96319.63;5067689;28;20659;-79
2023/04/13 07:28:48;;;;;;;9.83;4.17;;;;;;;14.41;36.73;96280.25;5071047;28;20415;-80
2023/04/13 07:31:17;;;;;;;5.00;3.50;;;;;;;14.96;36.71;96318.72;5072202;28;20180;-78
2023/04/13 07:33:47;;;;;;;7.10;2.70;;;;;;;14.51;35.95;96304.69;5071583;28;20220;-81
2023/04/13 07:36:22;;;;;;;4.97;3.67;;;;;;;14.69;36.33;96321.59;5072250;28;20200;-80
2023/04/13 07:38:51;;;;;;;5.47;2.70;;;;;;;14.63;35.67;96314.22;5055637;28;20233;-82
2023/04/13 07:41:21;;;;;;;6.50;2.90;;;;;;;15.03;35.85;96319.09;5072049;28;20220;-81
2023/04/13 07:43:52;;;;;;;6.47;3.20;;;;;;;15.20;35.66;96318.66;5071712;28;20188;-82
2023/04/13 07:46:25;;;;;;;7.70;4.20;;;;;;;15.10;36.36;96305.50;5071878;28;20663;-80
2023/04/13 07:48:53;;;;;;;9.97;5.87;;;;;;;15.27;35.71;96325.09;5072508;28;20193;-83
2023/04/13 07:51:25;;;;;;;6.37;4.30;;;;;;;15.23;35.41;96321.03;5084239;28;20205;-81
2023/04/13 07:53:53;;;;;;;9.67;3.87;;;;;;;15.17;36.67;96318.88;5076145;28;20223;-83
2023/04/13 07:56:21;;;;;;;6.43;4.40;;;;;;;15.30;37.30;96317.03;5055442;28;20664;-81
2023/04/13 07:58:51;;;;;;;14.73;5.43;;;;;;;15.39;37.04;96314.53;5055422;28;20918;-80
2023/04/13 08:01:18;;;;;;;4.00;2.80;;;;;;;15.59;35.35;96305.22;5071182;28;20671;-80
2023/04/13 08:03:45;;;;;;;9.07;4.10;;;;;;;15.52;35.91;96298.00;5071756;28;20675;-80
2023/04/13 08:06:22;;;;;;;4.37;3.20;;;;;;;15.75;34.54;96310.06;5055237;28;20568;-83
2023/04/13 08:08:50;;;;;;;3.10;1.90;;;;;;;15.34;33.14;96279.31;5072568;28;20298;-82
2023/04/13 08:11:18;;;;;;;3.30;2.10;;;;;;;15.36;33.65;96306.13;5073408;28;20207;-80
2023/04/13 08:13:48;;;;;;;4.70;3.20;;;;;;;15.47;34.33;96308.78;5070836;28;20710;-81
2023/04/13 08:16:15;;;;;;;7.50;3.63;;;;;;;15.57;34.71;96294.06;5055174;28;20212;-81
2023/04/13 08:18:43;;;;;;;7.50;3.00;;;;;;;14.92;34.90;96296.44;5071660;28;20190;-84
2023/04/13 08:21:12;;;;;;;8.13;2.80;;;;;;;15.37;34.89;96295.56;5071385;28;20564;-81
2023/04/13 08:23:41;;;;;;;5.73;3.00;;;;;;;15.64;34.20;96294.44;5072061;28;20633;-83
2023/04/13 08:26:20;;;;;;;3.40;2.50;;;;;;;15.75;33.76;96302.25;5071417;28;20272;-80
2023/04/13 08:28:47;;;;;;;3.70;2.83;;;;;;;15.91;33.60;96302.72;5089921;28;20193;-81
2023/04/13 08:31:15;;;;;;;3.27;2.20;;;;;;;16.12;32.91;96299.25;5071473;28;20516;-80
2023/04/13 08:33:48;;;;;;;4.70;3.53;;;;;;;16.07;32.72;96274.44;5071634;28;20311;-81
2023/04/13 08:36:16;;;;;;;5.43;2.53;;;;;;;16.25;32.59;96305.16;5089014;28;20543;-82
2023/04/13 08:38:47;;;;;;;2.47;1.97;;;;;;;16.15;33.19;96300.78;5070448;28;20216;-80
2023/04/13 08:41:16;;;;;;;3.53;2.27;;;;;;;16.17;33.96;96299.72;5089515;28;20189;-82
2023/04/13 08:43:49;;;;;;;4.57;2.27;;;;;;;16.09;33.49;96285.59;5071765;28;20189;-81
2023/04/13 08:46:19;;;;;;;8.53;3.87;;;;;;;15.92;33.88;96288.72;5072170;28;20187;-82
2023/04/13 08:48:53;;;;;;;2.60;1.73;;;;;;;15.47;33.95;96274.84;5071049;28;20675;-79
2023/04/13 08:51:28;;;;;;;4.73;1.90;;;;;;;15.55;33.79;96295.13;5105331;28;20188;-80
2023/04/13 08:53:57;;;;;;;2.33;1.53;;;;;;;15.30;32.03;96280.50;5105201;28;20219;-81
2023/04/13 08:56:30;;;;;;;2.80;2.17;;;;;;;15.28;32.88;96278.00;5071391;28;20192;-81
2023/04/13 08:59:15;;;;;;;2.27;2.00;;;;;;;15.77;31.71;96280.28;5072853;28;20183;-82
2023/04/13 09:02:27;;;;;;;2.77;2.00;;;;;;;16.04;31.85;96283.34;5072353;28;20223;-85
2023/04/13 09:05:49;;;;;;;3.70;2.40;;;;;;;15.72;31.28;96285.06;5079931;28;20185;-85
2023/04/13 09:08:34;;;;;;;5.60;2.00;;;;;;;15.71;31.01;96267.72;5073985;28;20200;-84
2023/04/13 09:11:04;;;;;;;2.03;1.83;;;;;;;16.05;30.31;96278.97;5059324;28;20188;-79
2023/04/13 09:13:31;;;;;;;7.27;1.87;;;;;;;16.22;28.57;96279.25;5095655;28;20253;-84
2023/04/13 09:16:00;;;;;;;2.23;1.87;;;;;;;16.55;29.62;96278.34;5095253;28;20269;-84
2023/04/13 09:19:31;;;;;;;3.40;2.17;;;;;;;16.28;30.20;96270.09;5092336;28;20430;-84
2023/04/13 09:22:13;;;;;;;3.17;1.70;;;;;;;16.34;28.58;96282.69;5071232;28;20275;-85
2023/04/13 09:24:40;;;;;;;2.40;1.40;;;;;;;16.12;27.27;96274.88;5099209;28;20261;-85
2023/04/13 09:27:25;;;;;;;2.30;1.40;;;;;;;16.06;27.61;96273.59;5097391;28;20282;-80
2023/04/13 09:29:54;;;;;;;1.83;1.50;;;;;;;16.32;27.50;96275.91;5099605;28;20195;-74
2023/04/13 09:32:23;;;;;;;1.90;1.40;;;;;;;16.41;27.85;96281.22;5060620;28;20205;-86
2023/04/13 09:35:11;;;;;;;2.33;1.90;;;;;;;16.57;26.95;96270.41;5060624;28;20373;-83
2023/04/13 09:37:40;;;;;;;3.47;1.47;;;;;;;16.76;25.52;96267.91;5061430;28;20208;-82
2023/04/13 09:40:12;;;;;;;2.47;1.50;;;;;;;16.66;26.74;96249.56;5069442;28;20246;-83
2023/04/13 09:42:51;;;;;;;2.70;1.80;;;;;;;17.05;26.62;96282.03;5096547;28;20191;-86
2023/04/13 09:45:19;;;;;;;2.47;1.40;;;;;;;17.14;26.48;96270.81;5075989;28;20797;-83
2023/04/13 09:47:47;;;;;;;1.97;1.40;;;;;;;16.83;26.98;96258.63;5096147;28;20198;-85
2023/04/13 09:50:17;;;;;;;1.93;1.43;;;;;;;16.95;26.71;96275.91;5089824;28;20255;-87
2023/04/13 09:52:44;;;;;;;2.33;1.40;;;;;;;16.56;27.29;96264.34;5089059;28;20309;-82
2023/04/13 09:55:16;;;;;;;2.33;1.40;;;;;;;16.53;27.01;96264.56;5087597;28;20219;-83
2023/04/13 09:57:43;;;;;;;3.33;2.40;;;;;;;16.86;27.84;96266.19;5069046;28;20271;-86
2023/04/13 10:00:19;;;;;;;4.93;1.67;;;;;;;17.17;26.89;96259.22;5088162;28;20231;-85
2023/04/13 10:02:51;;;;;;;2.87;2.20;;;;;;;17.49;27.17;96255.59;5087434;28;20196;-82
2023/04/13 10:05:18;;;;;;;3.73;2.37;;;;;;;17.62;26.61;96248.31;5088249;28;20193;-82
2023/04/13 10:07:46;;;;;;;3.63;2.20;;;;;;;17.81;26.47;96264.09;5092376;28;20692;-83
2023/04/13 10:10:13;;;;;;;6.13;1.63;;;;;;;17.97;27.19;96266.22;5091145;28;20197;-86
2023/04/13 10:12:47;;;;;;;3.37;2.20;;;;;;;17.91;26.80;96252.84;5071217;28;20577;-85
2023/04/13 10:15:20;;;;;;;4.20;2.10;;;;;;;18.17;27.50;96249.59;5088007;28;20225;-82
2023/04/13 10:18:04;;;;;;;10.37;4.37;;;;;;;18.22;27.30;96249.16;5088808;28;20243;-81
2023/04/13 10:20:32;;;;;;;3.00;1.20;;;;;;;18.13;26.42;96211.50;5088619;28;20224;-84
2023/04/13 10:22:59;;;;;;;4.67;3.20;;;;;;;18.23;27.16;96237.72;5069726;28;20735;-76
2023/04/13 10:25:26;;;;;;;4.97;2.47;;;;;;;18.42;27.40;96228.06;5069693;28;20365;-76
2023/04/13 10:28:00;;;;;;;5.23;2.03;;;;;;;18.50;27.20;96230.88;5086542;28;20379;-79
2023/04/13 10:30:28;;;;;;;4.50;2.13;;;;;;;18.47;26.93;96235.56;5087815;28;20617;-77
2023/04/13 10:33:08;;;;;;;2.50;1.63;;;;;;;18.18;27.38;96218.94;5086524;28;20253;-82
2023/04/13 10:35:39;;;;;;;4.57;1.67;;;;;;;17.89;27.56;96242.47;5087104;28;20218;-85
2023/04/13 10:38:10;;;;;;;3.07;1.77;;;;;;;17.99;28.45;96230.22;5068656;28;20206;-84
2023/04/13 10:40:47;;;;;;;1.33;1.20;;;;;;;17.87;27.58;96242.63;5086826;28;20184;-85
2023/04/13 10:43:30;;;;;;;2.30;1.20;;;;;;;17.88;27.39;96228.56;5087380;28;20215;-86
2023/04/13 10:46:10;;;;;;;4.93;2.03;;;;;;;17.73;27.69;96214.19;5068710;28;20195;-88
2023/04/13 10:48:39;;;;;;;6.60;2.53;;;;;;;17.91;28.12;96227.44;5081123;28;20610;-85
2023/04/13 10:51:07;;;;;;;3.37;1.60;;;;;;;18.12;28.14;96227.34;5068272;28;20282;-85
2023/04/13 10:53:34;;;;;;;2.63;1.83;;;;;;;18.25;28.55;96220.06;5066771;28;20257;-81
2023/04/13 10:56:01;;;;;;;2.43;1.27;;;;;;;18.21;28.62;96219.53;5049813;28;20222;-88
2023/04/13 10:58:31;;;;;;;2.70;2.20;;;;;;;18.17;28.85;96205.03;5066695;28;20246;-89
2023/04/13 11:00:59;;;;;;;2.30;1.63;;;;;;;18.00;29.31;96215.34;5067852;28;20206;-83
2023/04/13 11:03:27;;;;;;;2.13;1.57;;;;;;;17.94;28.43;96187.06;5064930;28;20186;-76
2023/04/13 11:05:57;;;;;;;5.07;2.63;;;;;;;18.26;29.15;96219.91;5066146;28;20187;-84
2023/04/13 11:08:26;;;;;;;2.93;1.57;;;;;;;18.14;29.12;96205.28;5066210;28;20184;-80
2023/04/13 11:10:55;;;;;;;2.57;1.77;;;;;;;18.14;29.06;96207.91;5066493;28;20184;-83
2023/04/13 11:13:24;;;;;;;2.50;1.53;;;;;;;18.29;28.81;96197.84;5067184;28;20203;-84
2023/04/13 11:16:00;;;;;;;3.20;1.43;;;;;;;18.44;29.16;96202.56;5066305;28;20233;-84
2023/04/13 11:18:27;;;;;;;3.27;2.40;;;;;;;18.76;29.45;96194.41;5066841;28;20188;-84
2023/04/13 11:20:55;;;;;;;2.90;1.40;;;;;;;18.65;28.23;96207.66;5066222;28;20204;-82
2023/04/13 11:23:23;;;;;;;4.37;1.60;;;;;;;18.42;30.25;96183.50;5067702;28;20226;-83
2023/04/13 11:25:56;;;;;;;4.57;1.90;;;;;;;18.76;29.60;96206.69;5066699;28;20186;-82
2023/04/13 11:28:35;;;;;;;4.90;1.67;;;;;;;18.88;28.87;96201.16;5050622;28;20187;-84
2023/04/13 11:31:03;;;;;;;3.70;1.47;;;;;;;18.26;29.49;96208.63;5067461;28;20564;-86
2023/04/13 11:33:32;;;;;;;2.27;1.40;;;;;;;18.38;29.40;96200.47;5065911;28;20218;-85
2023/04/13 11:36:00;;;;;;;4.33;1.60;;;;;;;18.43;29.63;96192.19;5081736;28;20252;-83
2023/04/13 11:38:28;;;;;;;3.77;1.90;;;;;;;18.53;28.92;96187.81;5047922;28;20797;-84
2023/04/13 11:41:02;;;;;;;3.33;1.83;;;;;;;18.66;29.51;96193.59;5066784;28;20188;-80
2023/04/13 11:43:44;;;;;;;2.73;1.73;;;;;;;18.81;29.01;96186.97;5049506;28;20203;-87
2023/04/13 11:46:14;;;;;;;2.43;1.90;;;;;;;19.02;29.06;96195.44;5070853;28;20247;-84
2023/04/13 11:48:42;;;;;;;2.73;1.80;;;;;;;19.11;29.42;96191.97;5075553;28;20192;-88
2023/04/13 11:51:10;;;;;;;5.83;1.60;;;;;;;19.23;29.67;96182.13;5082927;28;20192;-87